This is the latest recevied weather packets stored in our database for station/object KI4NG. If no packets are shown the sender has not sent any weather packets the latest 10 day(s).
| Time | Temp. | Humidity | Pressure | Rain* | Wind** | Luminosity | Snow |
|---|---|---|---|---|---|---|---|
| 1777761946 | 12.22° C | 61% | 1016.6 hPa | 0 mm | - | 188 W/m² | - |
| 1777761643 | 12.78° C | 60% | 1016.5 hPa | 0 mm | - | 217 W/m² | - |
| 1777761340 | 12.78° C | 60% | 1016.6 hPa | 0 mm | - | 237 W/m² | - |
| 1777761039 | 12.78° C | 61% | 1016.5 hPa | 0 mm | - | 260 W/m² | - |
| 1777760736 | 12.78° C | 60% | 1016.7 hPa | 0 mm | - | 269 W/m² | - |
| 1777760432 | 12.78° C | 60% | 1016.4 hPa | 0 mm | - | 269 W/m² | - |
| 1777760127 | 12.78° C | 61% | 1016.1 hPa | 0 mm | - | 308 W/m² | - |
| 1777759825 | 13.33° C | 60% | 1016.7 hPa | 0 mm | - | 327 W/m² | - |
| 1777759521 | 12.78° C | 61% | 1016.4 hPa | 0 mm | - | 335 W/m² | - |
| 1777759218 | 12.78° C | 60% | 1016.5 hPa | 0 mm | - | 355 W/m² | - |
| 1777758915 | 12.78° C | 62% | 1016.2 hPa | 0 mm | - | 111 W/m² | - |
| 1777758612 | 12.78° C | 59% | 1016.2 hPa | 0 mm | - | 385 W/m² | - |
| 1777758309 | 12.78° C | 60% | 1016.1 hPa | 0 mm | - | 407 W/m² | - |
| 1777758006 | 12.22° C | 62% | 1016.5 hPa | 0 mm | - | 118 W/m² | - |
| 1777757702 | 12.78° C | 61% | 1016.4 hPa | 0 mm | - | 161 W/m² | - |
| 1777757401 | 13.89° C | 58% | 1016.1 hPa | 0 mm | - | 477 W/m² | - |
| 1777757099 | 12.78° C | 58% | 1016.2 hPa | 0 mm | - | 561 W/m² | - |
| 1777756796 | 13.33° C | 57% | 1016.1 hPa | 0 mm | - | 223 W/m² | - |
| 1777756492 | 12.78° C | 60% | 1016.4 hPa | 0 mm | - | 243 W/m² | - |
| 1777756190 | 12.78° C | 59% | 1015.9 hPa | 0 mm | - | 225 W/m² | - |
| 1777755886 | 12.78° C | 55% | 1016 hPa | 0 mm | - | 174 W/m² | - |
| 1777755583 | 13.33° C | 54% | 1016.1 hPa | 0 mm | - | 187 W/m² | - |
| 1777755279 | 13.33° C | 53% | 1015.9 hPa | 0 mm | - | 178 W/m² | - |
| 1777754977 | 13.89° C | 50% | 1016 hPa | 0 mm | - | 177 W/m² | - |
| 1777754674 | 13.89° C | 53% | 1015.9 hPa | 0 mm | - | 484 W/m² | - |
* Rain latest hour (hover to see other rain measurements)
** Current wind speed in m/s (hover to see current wind gust speed)